Time;durP1;ratioP1;P1;durP2;ratioP2;P2;SDS_P1;SDS_P2;PMS_P1;PMS_P2;Temp;Humidity;BMP_temperature;BMP_pressure;BME280_temperature;BME280_humidity;BME280_pressure;Samples;Min_cycle;Max_cycle;Signal;HPM_P1;HPM_P2
2023/12/11 00:01:37;;;;;;;2.03;0.50;;;;;;;8.55;100.00;97893.38;5068698;28;20037;-74
2023/12/11 00:04:03;;;;;;;0.60;0.28;;;;;;;8.56;100.00;97886.94;5042249;28;20021;-74
2023/12/11 00:06:28;;;;;;;2.88;0.50;;;;;;;8.46;100.00;97862.34;5064679;28;20020;-74
2023/12/11 00:08:53;;;;;;;2.95;0.40;;;;;;;8.61;100.00;97882.78;5050237;28;20105;-74
2023/12/11 00:11:18;;;;;;;7.60;0.82;;;;;;;8.49;100.00;97853.81;5052696;28;20234;-74
2023/12/11 00:13:44;;;;;;;2.28;0.50;;;;;;;8.54;100.00;97870.19;5032379;28;20029;-74
2023/12/11 00:16:09;;;;;;;1.02;0.25;;;;;;;8.46;100.00;97848.84;5053233;28;20472;-74
2023/12/11 00:18:35;;;;;;;1.55;0.52;;;;;;;8.52;100.00;97857.94;5042253;28;20052;-74
2023/12/11 00:21:00;;;;;;;3.47;0.43;;;;;;;8.44;100.00;97845.53;5055717;28;20306;-75
2023/12/11 00:23:26;;;;;;;3.80;0.45;;;;;;;8.48;100.00;97849.44;5045622;28;20017;-74
2023/12/11 00:25:52;;;;;;;1.95;0.50;;;;;;;8.48;100.00;97854.00;5048250;28;20033;-74
2023/12/11 00:28:17;;;;;;;1.13;0.50;;;;;;;8.40;100.00;97855.06;5052818;28;20032;-75
2023/12/11 00:30:42;;;;;;;2.63;0.40;;;;;;;8.30;100.00;97857.34;5057496;28;20028;-73
2023/12/11 00:33:08;;;;;;;2.25;0.30;;;;;;;8.35;100.00;97881.81;5055520;28;20234;-73
2023/12/11 00:35:33;;;;;;;1.65;0.30;;;;;;;8.27;100.00;97885.56;5063853;28;20041;-74
2023/12/11 00:37:58;;;;;;;4.13;0.40;;;;;;;8.21;100.00;97891.78;5044959;28;20326;-73
2023/12/11 00:40:24;;;;;;;1.17;0.40;;;;;;;8.17;100.00;97884.34;5055955;28;20318;-74
2023/12/11 00:42:49;;;;;;;2.25;0.40;;;;;;;8.17;100.00;97887.03;5058090;28;20016;-74
2023/12/11 00:45:14;;;;;;;2.20;0.40;;;;;;;8.28;100.00;97887.22;5042825;28;20021;-74
2023/12/11 00:47:40;;;;;;;2.38;0.30;;;;;;;8.31;100.00;97867.13;5047751;28;20087;-74
2023/12/11 00:50:05;;;;;;;0.50;0.20;;;;;;;8.46;100.00;97878.50;5062355;28;20028;-75
2023/12/11 00:52:30;;;;;;;1.98;0.30;;;;;;;8.56;100.00;97883.44;5055319;28;20021;-73
2023/12/11 00:54:56;;;;;;;1.20;0.25;;;;;;;8.77;100.00;97896.59;5045098;28;20318;-74
2023/12/11 00:57:22;;;;;;;1.17;0.43;;;;;;;8.78;100.00;97875.88;5052336;28;20029;-75
2023/12/11 00:59:47;;;;;;;0.38;0.30;;;;;;;8.87;100.00;97893.47;5049387;28;20025;-74
2023/12/11 01:02:13;;;;;;;3.72;0.50;;;;;;;8.76;100.00;97876.09;5031187;28;20021;-74
2023/12/11 01:04:38;;;;;;;1.65;0.47;;;;;;;8.82;100.00;97895.97;5050534;28;20036;-74
2023/12/11 01:07:03;;;;;;;1.70;0.30;;;;;;;8.83;100.00;97886.00;5033491;28;20025;-74
2023/12/11 01:09:29;;;;;;;2.28;0.75;;;;;;;8.89;100.00;97885.16;5045188;28;20017;-74
2023/12/11 01:11:54;;;;;;;1.75;0.40;;;;;;;8.96;100.00;97899.44;5044135;28;20156;-75
2023/12/11 01:14:19;;;;;;;2.13;0.20;;;;;;;9.01;100.00;97880.72;5061170;28;20044;-74
2023/12/11 01:16:44;;;;;;;0.95;0.20;;;;;;;9.14;100.00;97882.53;5043166;28;20032;-73
2023/12/11 01:19:10;;;;;;;2.53;0.30;;;;;;;9.19;100.00;97872.72;5047192;28;20036;-75
2023/12/11 01:21:35;;;;;;;1.00;0.38;;;;;;;9.27;100.00;97882.44;5045081;28;20026;-75
2023/12/11 01:24:00;;;;;;;0.15;0.13;;;;;;;9.43;100.00;97881.94;5041920;28;20326;-75
2023/12/11 01:26:25;;;;;;;0.35;0.13;;;;;;;9.52;100.00;97873.56;5054562;28;20096;-74
2023/12/11 01:28:51;;;;;;;1.25;0.20;;;;;;;9.57;100.00;97887.25;5044786;28;20021;-75
2023/12/11 01:31:16;;;;;;;0.75;0.20;;;;;;;9.55;100.00;97881.22;5055125;28;20029;-73
2023/12/11 01:33:42;;;;;;;2.65;0.28;;;;;;;9.54;100.00;97883.09;5029908;28;20028;-73
2023/12/11 01:36:08;;;;;;;0.10;0.10;;;;;;;9.47;100.00;97873.41;5057192;28;20311;-73
2023/12/11 01:38:33;;;;;;;2.40;0.22;;;;;;;9.31;100.00;97861.25;5025479;28;20041;-74
2023/12/11 01:40:58;;;;;;;1.75;0.20;;;;;;;9.50;100.00;97886.44;5049417;28;20025;-73
2023/12/11 01:43:25;;;;;;;1.38;0.10;;;;;;;9.56;100.00;97899.06;5058076;28;20029;-73
2023/12/11 01:46:09;;;;;;;0.40;0.20;;;;;;;9.54;100.00;97898.47;5033749;28;20025;-74
2023/12/11 01:48:36;;;;;;;0.13;0.05;;;;;;;9.60;100.00;97903.81;5054627;28;20333;-74
2023/12/11 01:51:02;;;;;;;0.20;0.17;;;;;;;9.53;100.00;97891.41;5029201;28;20025;-75
2023/12/11 01:53:28;;;;;;;2.13;0.30;;;;;;;9.57;100.00;97898.03;5061267;28;20424;-75
2023/12/11 01:55:54;;;;;;;1.50;0.30;;;;;;;9.57;100.00;97908.84;5033337;28;20033;-75
2023/12/11 01:58:20;;;;;;;1.98;0.20;;;;;;;9.46;100.00;97896.03;5049032;28;20025;-74
2023/12/11 02:00:46;;;;;;;0.30;0.10;;;;;;;9.40;100.00;97890.44;5058402;28;20032;-73
2023/12/11 02:03:11;;;;;;;1.70;0.20;;;;;;;9.36;100.00;97894.66;5049279;28;20148;-75
2023/12/11 02:05:37;;;;;;;1.67;0.30;;;;;;;9.27;100.00;97878.91;5047362;28;20093;-75
2023/12/11 02:08:03;;;;;;;1.17;0.10;;;;;;;9.26;100.00;97883.50;5060706;28;20028;-75
2023/12/11 02:10:28;;;;;;;1.58;0.30;;;;;;;9.16;100.00;97889.38;5056041;28;20052;-74
2023/12/11 02:12:54;;;;;;;1.65;0.20;;;;;;;9.08;100.00;97892.31;5044000;28;20059;-74
2023/12/11 02:15:39;;;;;;;1.23;0.22;;;;;;;9.13;100.00;97897.91;5061406;28;20058;-74
2023/12/11 02:18:04;;;;;;;1.52;0.20;;;;;;;9.04;100.00;97892.97;5060810;28;20028;-74
2023/12/11 02:20:29;;;;;;;0.40;0.20;;;;;;;8.97;100.00;97874.13;5030156;28;20025;-73
2023/12/11 02:22:59;;;;;;;1.05;0.20;;;;;;;8.85;100.00;97873.13;5045541;28;20326;-74
2023/12/11 02:25:25;;;;;;;1.35;0.38;;;;;;;8.82;100.00;97884.38;5031355;28;20025;-73
2023/12/11 02:27:50;;;;;;;0.52;0.30;;;;;;;8.73;100.00;97881.09;5039749;28;20124;-73
2023/12/11 02:30:16;;;;;;;0.57;0.35;;;;;;;8.75;100.00;97890.63;5040966;28;20096;-74
2023/12/11 02:32:41;;;;;;;1.15;0.32;;;;;;;8.67;100.00;97885.47;5061696;28;20029;-73
2023/12/11 02:35:06;;;;;;;2.50;0.20;;;;;;;8.65;100.00;97892.94;5052624;28;20033;-75
2023/12/11 02:37:31;;;;;;;2.45;0.20;;;;;;;8.67;100.00;97898.97;5039056;28;20083;-74
2023/12/11 02:39:57;;;;;;;1.65;0.22;;;;;;;8.69;100.00;97902.25;5046005;28;20085;-74
2023/12/11 02:42:22;;;;;;;2.35;0.30;;;;;;;8.72;100.00;97882.13;5061437;28;20039;-74
2023/12/11 02:44:47;;;;;;;0.03;0.03;;;;;;;8.95;100.00;97911.28;5049755;28;20024;-74
2023/12/11 02:47:12;;;;;;;1.67;0.20;;;;;;;8.94;100.00;97904.22;5054402;28;20044;-75
2023/12/11 02:49:38;;;;;;;1.17;0.20;;;;;;;9.00;100.00;97904.19;5061566;28;20255;-74
2023/12/11 02:52:03;;;;;;;2.42;0.20;;;;;;;9.06;100.00;97885.47;5059573;28;20040;-74
2023/12/11 02:54:28;;;;;;;0.60;0.30;;;;;;;9.14;100.00;97885.22;5058819;28;20029;-76
2023/12/11 02:56:54;;;;;;;0.57;0.20;;;;;;;9.16;100.00;97888.53;5056430;28;20038;-75
2023/12/11 02:59:19;;;;;;;0.52;0.20;;;;;;;9.10;100.00;97887.53;5049180;28;20126;-74
2023/12/11 03:01:44;;;;;;;1.75;0.45;;;;;;;9.17;100.00;97882.13;5058002;28;20040;-75
2023/12/11 03:04:09;;;;;;;0.30;0.10;;;;;;;9.41;100.00;97884.03;5053135;28;20033;-75
2023/12/11 03:06:35;;;;;;;2.15;0.22;;;;;;;9.41;100.00;97859.72;5058762;28;20047;-75
2023/12/11 03:09:02;;;;;;;1.92;0.25;;;;;;;9.58;100.00;97881.59;5055930;28;20112;-75
2023/12/11 03:11:28;;;;;;;0.63;0.20;;;;;;;9.65;100.00;97878.84;5062023;28;20025;-74
2023/12/11 03:13:53;;;;;;;1.17;0.30;;;;;;;9.68;100.00;97872.19;5056428;28;20033;-76
2023/12/11 03:16:18;;;;;;;1.48;0.30;;;;;;;9.72;100.00;97878.78;5038040;28;20318;-75
2023/12/11 03:18:43;;;;;;;1.48;0.32;;;;;;;9.72;100.00;97878.78;5050091;28;20021;-73
2023/12/11 03:21:09;;;;;;;3.70;0.90;;;;;;;9.65;100.00;97857.25;5050343;28;20062;-75
2023/12/11 03:23:34;;;;;;;0.88;0.20;;;;;;;9.81;100.00;97864.78;5062512;28;20377;-75
2023/12/11 03:25:59;;;;;;;1.50;0.32;;;;;;;9.88;100.00;97856.66;5045146;28;20044;-75
2023/12/11 03:28:28;;;;;;;0.40;0.20;;;;;;;9.77;100.00;97839.28;5058413;28;20021;-76
2023/12/11 03:30:53;;;;;;;1.97;0.47;;;;;;;9.77;100.00;97833.88;5059826;28;20048;-74
2023/12/11 03:33:18;;;;;;;0.22;0.20;;;;;;;9.90;100.00;97859.94;5056461;28;20017;-75
2023/12/11 03:35:44;;;;;;;1.58;0.38;;;;;;;9.94;100.00;97855.75;5063517;28;20096;-74
2023/12/11 03:38:09;;;;;;;2.85;0.38;;;;;;;9.90;100.00;97832.91;5053790;28;20092;-75
2023/12/11 03:40:34;;;;;;;4.40;0.38;;;;;;;9.85;100.00;97827.34;5060712;28;20067;-75
2023/12/11 03:43:00;;;;;;;3.70;0.20;;;;;;;9.91;100.00;97828.34;5050457;28;20333;-75
2023/12/11 03:45:25;;;;;;;4.00;0.40;;;;;;;9.85;100.00;97839.00;5050805;28;20033;-75
2023/12/11 03:47:50;;;;;;;1.23;0.30;;;;;;;9.91;100.00;97848.09;5062078;28;20045;-74
2023/12/11 03:50:16;;;;;;;0.70;0.20;;;;;;;9.84;100.00;97845.44;5042604;28;20028;-74
2023/12/11 03:52:41;;;;;;;1.80;0.30;;;;;;;9.66;100.00;97824.59;5063343;28;20032;-75
2023/12/11 03:55:07;;;;;;;0.77;0.20;;;;;;;9.63;100.00;97837.75;5041598;28;20032;-75
2023/12/11 03:57:33;;;;;;;2.28;0.20;;;;;;;9.63;100.00;97827.75;5057059;28;20032;-75
2023/12/11 03:59:58;;;;;;;0.90;0.20;;;;;;;9.63;100.00;97826.94;5056169;28;20056;-74
2023/12/11 04:02:23;;;;;;;3.10;0.30;;;;;;;9.58;100.00;97830.28;5055099;28;20214;-74
2023/12/11 04:04:49;;;;;;;0.65;0.17;;;;;;;9.48;100.00;97826.44;5064719;28;20036;-75
2023/12/11 04:07:14;;;;;;;2.53;0.20;;;;;;;9.30;100.00;97811.00;5053910;28;20013;-74
2023/12/11 04:09:39;;;;;;;2.25;0.35;;;;;;;9.15;100.00;97797.84;5037295;28;20036;-75
2023/12/11 04:12:05;;;;;;;2.60;0.25;;;;;;;9.14;100.00;97813.22;5047456;28;20026;-74
2023/12/11 04:14:30;;;;;;;3.50;0.40;;;;;;;9.08;100.00;97811.38;5055182;28;20063;-79
2023/12/11 04:16:55;;;;;;;1.58;0.17;;;;;;;9.00;100.00;97801.66;5037092;28;20017;-78
2023/12/11 04:19:20;;;;;;;0.68;0.20;;;;;;;8.85;100.00;97787.66;5045076;28;20028;-80
2023/12/11 04:21:46;;;;;;;0.93;0.20;;;;;;;8.86;100.00;97819.00;5062519;28;20392;-81
2023/12/11 04:24:11;;;;;;;1.83;0.35;;;;;;;8.65;100.00;97797.75;5032533;28;20254;-83
2023/12/11 04:26:36;;;;;;;1.40;0.30;;;;;;;8.61;100.00;97810.00;5049540;28;20028;-82
2023/12/11 04:29:02;;;;;;;0.55;0.15;;;;;;;8.64;100.00;97828.44;5049172;28;20029;-82
2023/12/11 04:31:27;;;;;;;4.78;0.28;;;;;;;8.53;100.00;97814.59;5046541;28;20372;-80
2023/12/11 04:33:52;;;;;;;0.85;0.63;;;;;;;8.61;100.00;97823.47;5034867;28;20025;-81
2023/12/11 04:36:18;;;;;;;0.77;0.30;;;;;;;8.59;100.00;97836.34;5047814;28;20024;-80
2023/12/11 04:38:43;;;;;;;0.55;0.22;;;;;;;8.38;100.00;97803.22;5062374;28;20361;-77
2023/12/11 04:41:08;;;;;;;2.33;0.40;;;;;;;8.50;100.00;97833.06;5028408;28;20025;-82
2023/12/11 04:43:34;;;;;;;2.17;0.40;;;;;;;8.28;100.00;97806.38;5035685;28;20333;-80
2023/12/11 04:45:59;;;;;;;2.08;0.30;;;;;;;8.44;100.00;97842.84;5052454;28;20062;-82
2023/12/11 04:48:25;;;;;;;1.23;0.38;;;;;;;8.21;100.00;97823.63;5046416;28;20024;-78
2023/12/11 04:50:50;;;;;;;0.40;0.30;;;;;;;8.43;100.00;97854.66;5038797;28;20021;-78
2023/12/11 04:53:15;;;;;;;5.10;0.50;;;;;;;8.27;100.00;97844.31;5046734;28;20021;-80
2023/12/11 04:55:40;;;;;;;0.68;0.40;;;;;;;8.30;100.00;97843.88;5040747;28;20473;-81
2023/12/11 04:58:06;;;;;;;0.73;0.40;;;;;;;8.33;100.00;97848.84;5039950;28;20028;-77
2023/12/11 05:00:31;;;;;;;2.55;0.60;;;;;;;8.31;100.00;97845.56;5049324;28;20064;-80
2023/12/11 05:02:56;;;;;;;0.93;0.82;;;;;;;8.35;100.00;97855.69;5043311;28;20021;-78
2023/12/11 05:05:22;;;;;;;1.73;0.90;;;;;;;8.21;100.00;97840.59;5046170;28;20036;-80
2023/12/11 05:07:47;;;;;;;0.70;0.50;;;;;;;8.21;100.00;97847.88;5044562;28;20020;-82
2023/12/11 05:10:12;;;;;;;0.63;0.50;;;;;;;7.92;100.00;97809.59;5053935;28;20070;-77
2023/12/11 05:12:37;;;;;;;0.50;0.32;;;;;;;7.96;100.00;97826.16;5038942;28;20394;-77
2023/12/11 05:15:03;;;;;;;1.67;0.60;;;;;;;7.85;100.00;97836.53;5042518;28;20029;-78
2023/12/11 05:17:28;;;;;;;1.75;0.68;;;;;;;7.64;100.00;97817.91;5029434;28;20025;-77
2023/12/11 05:19:54;;;;;;;4.97;1.98;;;;;;;7.60;100.00;97822.91;5038827;28;20040;-78
2023/12/11 05:22:19;;;;;;;3.97;2.10;;;;;;;7.41;100.00;97807.59;5029513;28;20025;-78
2023/12/11 05:24:45;;;;;;;2.05;1.17;;;;;;;7.51;100.00;97828.69;5038837;28;20029;-78
2023/12/11 05:27:11;;;;;;;3.05;1.40;;;;;;;7.60;100.00;97836.38;5047878;28;20032;-75
2023/12/11 05:29:37;;;;;;;2.92;1.48;;;;;;;7.41;100.00;97821.03;5044625;28;20067;-72
2023/12/11 05:32:02;;;;;;;2.83;1.48;;;;;;;7.60;100.00;97833.69;5045964;28;20025;-74
2023/12/11 05:34:27;;;;;;;2.63;1.20;;;;;;;7.60;100.00;97812.13;5027425;28;20337;-73
2023/12/11 05:36:53;;;;;;;2.55;1.30;;;;;;;7.72;100.00;97819.56;5044401;28;20028;-76
2023/12/11 05:39:19;;;;;;;2.65;1.05;;;;;;;7.79;100.00;97826.59;5047517;28;20101;-76
2023/12/11 05:41:44;;;;;;;2.05;1.13;;;;;;;7.65;100.00;97820.41;5035873;28;20045;-79
2023/12/11 05:44:09;;;;;;;1.80;0.93;;;;;;;7.57;100.00;97817.09;5035109;28;20021;-79
2023/12/11 05:46:34;;;;;;;2.08;1.02;;;;;;;7.53;100.00;97811.31;5044976;28;20033;-78
2023/12/11 05:49:00;;;;;;;1.50;0.90;;;;;;;7.39;100.00;97780.06;5032145;28;20060;-75
2023/12/11 05:51:27;;;;;;;2.13;0.90;;;;;;;7.49;100.00;97787.72;5056973;28;20064;-77
2023/12/11 05:53:55;;;;;;;2.72;1.40;;;;;;;7.50;100.00;97784.81;5029639;28;20049;-77
2023/12/11 05:56:20;;;;;;;4.20;1.48;;;;;;;7.59;100.00;97799.69;5059727;28;20072;-76
2023/12/11 05:58:46;;;;;;;3.67;1.90;;;;;;;7.62;100.00;97807.38;5062133;28;20191;-80
2023/12/11 06:01:11;;;;;;;2.95;1.73;;;;;;;7.54;100.00;97822.91;5040886;28;20037;-77
2023/12/11 06:03:36;;;;;;;3.30;1.27;;;;;;;7.40;100.00;97811.31;5033692;28;20273;-83
2023/12/11 06:06:02;;;;;;;3.47;1.42;;;;;;;7.47;100.00;97833.69;5038264;28;20053;-83
2023/12/11 06:08:27;;;;;;;1.75;0.95;;;;;;;7.42;100.00;97823.53;5042081;28;20103;-81
2023/12/11 06:10:53;;;;;;;5.50;1.30;;;;;;;7.25;100.00;97788.13;5037196;28;20024;-75
2023/12/11 06:13:18;;;;;;;2.42;1.40;;;;;;;7.44;100.00;97807.16;5055040;28;20318;-80
2023/12/11 06:15:44;;;;;;;3.95;1.42;;;;;;;7.44;100.00;97808.00;5038296;28;20256;-71
2023/12/11 06:18:09;;;;;;;5.25;1.50;;;;;;;7.62;100.00;97810.06;5062055;23;20047;-73
2023/12/11 06:20:35;;;;;;;1.42;1.05;;;;;;;7.60;100.00;97792.47;5070096;28;20036;-73
2023/12/11 06:23:01;;;;;;;1.58;0.82;;;;;;;7.72;100.00;97809.63;5075786;28;20079;-73
2023/12/11 06:25:26;;;;;;;1.35;0.80;;;;;;;7.75;100.00;97816.47;5075492;28;20333;-73
2023/12/11 06:27:51;;;;;;;1.95;1.02;;;;;;;7.72;100.00;97806.13;5067613;28;20024;-73
2023/12/11 06:30:17;;;;;;;4.38;0.90;;;;;;;7.77;100.00;97817.09;5036672;28;20200;-73
2023/12/11 06:32:42;;;;;;;4.10;1.10;;;;;;;7.67;100.00;97807.56;5036406;28;20284;-73
2023/12/11 06:35:08;;;;;;;3.30;1.00;;;;;;;7.74;100.00;97812.13;5053168;28;20230;-72
2023/12/11 06:37:33;;;;;;;3.33;0.90;;;;;;;7.79;100.00;97798.84;5064171;28;20175;-73
2023/12/11 06:39:58;;;;;;;3.65;1.20;;;;;;;7.68;100.00;97776.91;5057986;28;20214;-73
2023/12/11 06:42:24;;;;;;;4.80;1.48;;;;;;;7.61;100.00;97770.72;5049357;28;20036;-73
2023/12/11 06:44:49;;;;;;;2.70;1.20;;;;;;;7.55;100.00;97774.25;5054875;28;20218;-73
2023/12/11 06:47:14;;;;;;;3.85;1.75;;;;;;;7.54;100.00;97769.88;5051636;28;20020;-73
2023/12/11 06:49:42;;;;;;;4.68;1.45;;;;;;;7.57;100.00;97769.50;5059438;28;20032;-73
2023/12/11 06:52:08;;;;;;;2.13;1.00;;;;;;;7.53;100.00;97757.47;5046562;28;20079;-73
2023/12/11 06:54:33;;;;;;;1.58;0.90;;;;;;;7.66;100.00;97775.47;5052881;28;20028;-73
2023/12/11 06:56:58;;;;;;;1.80;0.60;;;;;;;7.78;100.00;97771.13;5057278;28;20040;-73
2023/12/11 06:59:24;;;;;;;2.67;0.63;;;;;;;7.90;100.00;97772.09;5058205;28;20025;-73
2023/12/11 07:01:49;;;;;;;1.27;0.70;;;;;;;7.96;100.00;97775.81;5059649;28;20276;-73
2023/12/11 07:04:14;;;;;;;5.30;0.75;;;;;;;8.24;100.00;97780.88;5057587;28;20019;-73
2023/12/11 07:06:39;;;;;;;3.25;0.60;;;;;;;8.33;100.00;97768.00;5064608;28;20024;-73
2023/12/11 07:09:04;;;;;;;2.03;0.57;;;;;;;8.37;100.00;97773.81;5064991;28;20328;-72
2023/12/11 07:11:30;;;;;;;1.50;0.63;;;;;;;8.31;100.00;97767.41;5063838;28;20021;-73
2023/12/11 07:13:55;;;;;;;3.97;0.63;;;;;;;8.30;100.00;97757.66;5042950;28;20018;-73
2023/12/11 07:16:21;;;;;;;3.88;1.13;;;;;;;8.39;100.00;97755.56;5057034;28;20033;-73
2023/12/11 07:18:46;;;;;;;6.00;1.02;;;;;;;8.44;100.00;97753.91;5035465;28;20021;-73
2023/12/11 07:21:12;;;;;;;5.47;1.00;;;;;;;8.45;100.00;97750.16;5058103;28;20079;-73
2023/12/11 07:23:37;;;;;;;2.35;0.88;;;;;;;8.52;100.00;97734.78;5066582;28;20021;-73
2023/12/11 07:26:10;;;;;;;4.20;1.00;;;;;;;8.55;100.00;97723.53;5044067;28;20017;-72
2023/12/11 07:28:41;;;;;;;4.28;2.30;;;;;;;8.67;100.00;97736.31;5059118;28;20053;-72
2023/12/11 07:31:06;;;;;;;4.90;1.95;;;;;;;8.65;100.00;97725.78;5053377;28;20067;-73
2023/12/11 07:33:32;;;;;;;3.42;1.42;;;;;;;8.63;100.00;97727.03;5057977;28;20227;-73
2023/12/11 07:35:58;;;;;;;3.80;1.00;;;;;;;8.52;100.00;97731.25;5056301;28;20256;-75
2023/12/11 07:38:27;;;;;;;1.95;0.95;;;;;;;8.46;100.00;97738.34;5055057;28;20021;-75
2023/12/11 07:40:55;;;;;;;3.45;0.90;;;;;;;8.42;100.00;97742.50;5044455;28;20037;-75
2023/12/11 07:43:20;;;;;;;1.38;0.60;;;;;;;8.51;100.00;97721.50;5052056;28;20076;-74
2023/12/11 07:45:46;;;;;;;1.50;0.70;;;;;;;8.53;100.00;97720.22;5043316;28;20020;-75
2023/12/11 07:48:11;;;;;;;2.88;0.63;;;;;;;8.55;100.00;97710.06;5076288;28;20029;-74
2023/12/11 07:50:36;;;;;;;3.00;0.70;;;;;;;8.69;100.00;97707.28;5063979;28;20025;-74
2023/12/11 07:53:01;;;;;;;6.57;1.17;;;;;;;8.81;100.00;97704.72;5070655;28;20015;-73
2023/12/11 07:55:28;;;;;;;4.18;0.90;;;;;;;8.79;100.00;97707.63;5052474;28;20084;-75
2023/12/11 07:57:54;;;;;;;5.38;1.45;;;;;;;8.80;100.00;97705.75;5051341;28;20013;-81
2023/12/11 08:00:34;;;;;;;5.95;1.75;;;;;;;8.67;100.00;97693.19;5060111;28;20036;-82
2023/12/11 08:02:59;;;;;;;5.13;1.48;;;;;;;8.76;100.00;97694.59;5040630;28;20353;-79
2023/12/11 08:05:24;;;;;;;4.45;1.73;;;;;;;8.86;100.00;97719.19;5091508;22;20044;-58
2023/12/11 08:07:50;;;;;;;4.75;1.77;;;;;;;8.95;100.00;97720.56;5056443;28;20051;-58
2023/12/11 08:10:16;;;;;;;3.65;1.33;;;;;;;9.17;100.00;97731.00;5053461;28;20024;-58
2023/12/11 08:12:41;;;;;;;4.57;1.50;;;;;;;9.50;100.00;97727.97;5056480;28;20024;-62
2023/12/11 08:15:07;;;;;;;6.95;1.30;;;;;;;9.80;100.00;97730.78;5044694;28;20537;-61
2023/12/11 08:17:33;;;;;;;2.38;1.60;;;;;;;9.95;100.00;97735.78;5028501;28;20060;-62
2023/12/11 08:19:58;;;;;;;3.53;1.75;;;;;;;9.83;100.00;97757.34;5049741;28;20082;-62
2023/12/11 08:22:24;;;;;;;3.38;1.85;;;;;;;9.61;100.00;97738.03;5034650;28;20063;-62
2023/12/11 08:24:50;;;;;;;4.60;2.00;;;;;;;9.46;100.00;97744.84;5035105;28;20399;-62
2023/12/11 08:27:16;;;;;;;5.32;1.10;;;;;;;9.40;100.00;97741.97;5020262;28;20033;-58
2023/12/11 08:29:41;;;;;;;1.48;0.70;;;;;;;9.56;100.00;97748.69;5027329;28;20091;-58
2023/12/11 08:32:06;;;;;;;3.22;0.80;;;;;;;9.61;100.00;97738.03;5027286;28;20100;-60
2023/12/11 08:34:32;;;;;;;3.00;0.60;;;;;;;9.73;100.00;97730.03;5034609;28;20032;-57
2023/12/11 08:36:58;;;;;;;1.65;0.57;;;;;;;9.76;100.00;97729.56;5035354;28;20032;-58
2023/12/11 08:39:23;;;;;;;1.85;0.70;;;;;;;9.80;100.00;97728.09;5025550;28;20089;-57
2023/12/11 08:41:50;;;;;;;2.03;0.80;;;;;;;9.90;100.00;97710.50;5024878;28;20028;-58
2023/12/11 08:44:16;;;;;;;2.38;0.75;;;;;;;10.05;100.00;97711.78;5035138;28;20086;-58
2023/12/11 08:46:43;;;;;;;2.40;0.75;;;;;;;10.33;100.00;97706.91;5034772;28;20024;-57
2023/12/11 08:49:09;;;;;;;2.67;0.90;;;;;;;10.69;100.00;97704.09;5020493;28;20099;-58
2023/12/11 08:51:34;;;;;;;3.78;0.93;;;;;;;11.01;100.00;97703.81;5024180;28;20034;-58
2023/12/11 08:54:00;;;;;;;2.58;0.65;;;;;;;11.38;100.00;97700.88;5033536;28;20029;-58
2023/12/11 08:56:25;;;;;;;2.85;0.85;;;;;;;11.92;100.00;97698.88;5031741;28;20120;-58
2023/12/11 08:58:51;;;;;;;3.33;0.90;;;;;;;12.30;100.00;97693.91;5023359;28;20031;-58
2023/12/11 09:01:17;;;;;;;1.38;0.77;;;;;;;12.60;100.00;97674.66;5021575;28;20505;-58
2023/12/11 09:03:44;;;;;;;3.72;1.15;;;;;;;12.39;100.00;97693.28;5026842;28;20113;-58
2023/12/11 09:06:10;;;;;;;2.33;1.20;;;;;;;12.88;100.00;97684.66;5017645;28;20473;-57
2023/12/11 09:08:35;;;;;;;4.25;0.93;;;;;;;14.47;100.00;97685.78;5024705;28;20029;-58
2023/12/11 09:11:01;;;;;;;2.45;0.98;;;;;;;15.87;100.00;97689.41;5021176;28;20044;-58
2023/12/11 09:13:27;;;;;;;1.77;0.60;;;;;;;15.68;100.00;97693.63;5041768;28;20045;-58
2023/12/11 09:15:52;;;;;;;0.73;0.30;;;;;;;14.55;100.00;97694.63;5022110;28;20643;-58
2023/12/11 09:18:18;;;;;;;2.33;0.60;;;;;;;13.36;100.00;97705.84;5023150;28;20051;-58
2023/12/11 09:20:43;;;;;;;1.42;0.47;;;;;;;12.75;100.00;97695.81;5040820;28;20043;-58
2023/12/11 09:23:09;;;;;;;1.23;0.35;;;;;;;11.85;100.00;97711.69;5022976;28;20025;-58
2023/12/11 09:25:36;;;;;;;1.88;0.30;;;;;;;11.62;100.00;97710.63;5023620;28;20036;-58
2023/12/11 09:28:02;;;;;;;3.80;0.30;;;;;;;11.62;100.00;97718.75;5019451;28;20025;-58
2023/12/11 09:30:28;;;;;;;1.45;0.30;;;;;;;11.56;100.00;97710.78;5027714;28;20060;-58
2023/12/11 09:32:53;;;;;;;2.97;0.47;;;;;;;11.55;100.00;97707.25;5032590;28;20476;-58
2023/12/11 09:35:19;;;;;;;1.95;0.82;;;;;;;11.60;100.00;97723.59;5026119;28;20041;-61
2023/12/11 09:37:46;;;;;;;6.18;0.50;;;;;;;11.48;100.00;97730.09;5030496;28;20032;-62
2023/12/11 09:40:12;;;;;;;5.70;0.40;;;;;;;11.49;100.00;97724.44;5023490;28;20029;-62
2023/12/11 09:42:40;;;;;;;3.58;0.52;;;;;;;11.46;100.00;97738.44;5028647;28;20064;-62
2023/12/11 09:45:06;;;;;;;2.83;0.57;;;;;;;11.48;100.00;97733.63;5025558;28;20024;-62
2023/12/11 09:47:39;;;;;;;4.28;0.70;;;;;;;11.56;100.00;97729.75;5019148;28;20021;-62
2023/12/11 09:50:05;;;;;;;6.20;0.70;;;;;;;11.70;100.00;97723.00;5016982;28;20017;-62
2023/12/11 09:52:30;;;;;;;1.42;0.47;;;;;;;11.93;100.00;97719.47;5025957;28;20473;-62
2023/12/11 09:54:56;;;;;;;2.38;0.55;;;;;;;11.96;100.00;97721.69;5028386;28;20029;-61
2023/12/11 09:57:22;;;;;;;2.60;0.40;;;;;;;12.03;100.00;97724.28;5024146;28;20035;-62
2023/12/11 09:59:52;;;;;;;1.23;0.40;;;;;;;11.97;100.00;97723.38;5028840;28;20103;-62
2023/12/11 10:02:17;;;;;;;3.65;0.47;;;;;;;12.04;100.00;97718.63;5021591;28;20136;-62
2023/12/11 10:05:09;;;;;;;5.05;0.43;;;;;;;12.00;100.00;97703.91;5020623;28;20573;-62
2023/12/11 10:07:41;;;;;;;2.80;0.55;;;;;;;12.12;100.00;97705.75;5018341;28;20033;-62
2023/12/11 10:10:38;;;;;;;6.47;0.60;;;;;;;12.24;100.00;97701.13;5016669;28;20056;-62
2023/12/11 10:13:04;;;;;;;1.50;0.32;;;;;;;12.14;100.00;97700.94;5017122;28;20041;-58
2023/12/11 10:15:32;;;;;;;3.53;0.57;;;;;;;12.32;100.00;97700.75;5025564;28;20028;-62
2023/12/11 10:21:19;;;;;;;3.42;0.55;;;;;;;12.43;100.00;97713.44;5037406;28;20043;-58
2023/12/11 10:24:04;;;;;;;7.15;1.30;;;;;;;14.18;100.00;97701.53;5027387;28;20025;-58
2023/12/11 10:26:32;;;;;;;4.25;0.77;;;;;;;15.42;100.00;97690.75;5019160;28;20044;-58
2023/12/11 10:29:16;;;;;;;2.00;0.47;;;;;;;14.18;100.00;97704.25;5024540;28;20503;-58
2023/12/11 10:31:41;;;;;;;6.90;0.90;;;;;;;13.13;100.00;97690.50;5029651;28;20464;-57
2023/12/11 10:34:07;;;;;;;4.35;0.60;;;;;;;13.00;100.00;97700.88;5028871;28;20025;-58
2023/12/11 10:36:32;;;;;;;7.03;0.70;;;;;;;12.70;100.00;97704.69;5019997;28;20029;-58
2023/12/11 10:39:08;;;;;;;4.45;0.52;;;;;;;12.71;100.00;97695.50;5022581;28;20027;-58
2023/12/11 10:41:34;;;;;;;3.97;0.68;;;;;;;12.51;100.00;97706.78;5018468;28;20120;-58
2023/12/11 10:43:59;;;;;;;2.55;0.50;;;;;;;12.47;100.00;97695.63;5018274;28;20021;-58
2023/12/11 10:46:25;;;;;;;5.55;0.80;;;;;;;12.71;100.00;97703.63;5044685;28;20033;-61
2023/12/11 10:48:51;;;;;;;5.05;0.65;;;;;;;12.77;100.00;97691.78;5021999;28;20021;-58
2023/12/11 10:51:17;;;;;;;3.25;0.73;;;;;;;12.57;100.00;97688.72;5025338;28;20086;-57
2023/12/11 10:53:44;;;;;;;5.60;0.90;;;;;;;12.66;100.00;97703.56;5022730;28;20520;-57
2023/12/11 10:56:10;;;;;;;5.32;0.50;;;;;;;12.64;100.00;97698.34;5024726;28;20477;-57
2023/12/11 10:58:35;;;;;;;3.42;0.75;;;;;;;12.80;100.00;97693.19;5020451;28;20036;-58
2023/12/11 11:01:01;;;;;;;5.57;1.13;;;;;;;12.83;100.00;97709.81;5023560;28;20035;-58
2023/12/11 11:03:30;;;;;;;4.55;1.10;;;;;;;12.71;100.00;97709.88;5027277;28;20096;-58
2023/12/11 11:05:56;;;;;;;5.75;0.52;;;;;;;13.12;100.00;97707.03;5022599;28;20037;-58
2023/12/11 11:08:48;;;;;;;4.70;0.73;;;;;;;13.39;100.00;97707.25;5019546;28;20061;-58
2023/12/11 11:11:27;;;;;;;5.75;1.55;;;;;;;13.23;100.00;97719.72;5024966;28;20037;-58
2023/12/11 11:14:36;;;;;;;4.45;0.50;;;;;;;12.87;100.00;97712.88;5041667;28;20643;-63
2023/12/11 11:17:02;;;;;;;9.02;0.88;;;;;;;12.98;100.00;97709.25;5022030;28;20029;-62
2023/12/11 11:19:29;;;;;;;3.38;0.50;;;;;;;12.99;100.00;97710.06;5043227;28;20034;-62
2023/12/11 11:22:18;;;;;;;2.97;0.73;;;;;;;12.99;100.00;97719.03;5022561;28;20025;-62
2023/12/11 11:24:43;;;;;;;;;;;;;;;12.87;100.00;97710.97;5019608;28;20044;-62
2023/12/11 11:27:40;;;;;;;7.35;0.88;;;;;;;12.79;100.00;97708.66;5051968;28;20144;-62
2023/12/11 11:30:07;;;;;;;14.63;1.30;;;;;;;12.91;100.00;97706.69;5029427;28;20112;-62
2023/12/11 11:32:57;;;;;;;5.65;0.70;;;;;;;12.78;100.00;97698.84;5025415;28;20049;-62